createdAt,value
2024-01-12T00:00:01.056Z,-0.20
2024-01-12T00:02:29.382Z,-0.20
2024-01-12T00:04:59.034Z,-0.10
2024-01-12T00:07:27.634Z,-0.10
2024-01-12T00:09:56.035Z,-0.10
2024-01-12T00:12:24.281Z,-0.10
2024-01-12T00:14:52.742Z,-0.10
2024-01-12T00:17:21.428Z,-0.10
2024-01-12T00:19:50.108Z,-0.10
2024-01-12T00:22:19.668Z,0.00
2024-01-12T00:24:48.287Z,0.00
2024-01-12T00:27:16.637Z,0.00
2024-01-12T00:29:44.909Z,0.00
2024-01-12T00:32:13.315Z,0.00
2024-01-12T00:34:41.806Z,0.00
2024-01-12T00:37:10.042Z,0.00
2024-01-12T00:39:39.733Z,0.00
2024-01-12T00:42:08.143Z,0.00
2024-01-12T00:44:36.366Z,0.00
2024-01-12T00:47:05.049Z,0.00
2024-01-12T00:49:33.397Z,0.00
2024-01-12T00:52:02.108Z,0.10
2024-01-12T00:54:30.339Z,0.10
2024-01-12T00:56:59.920Z,0.00
2024-01-12T00:59:28.512Z,0.00
2024-01-12T01:01:59.333Z,0.00
2024-01-12T01:04:29.943Z,0.00
2024-01-12T01:06:58.113Z,0.00
2024-01-12T01:09:26.725Z,0.10
2024-01-12T01:11:55.193Z,0.10
2024-01-12T01:14:29.081Z,0.10
2024-01-12T01:16:57.268Z,0.10
2024-01-12T01:19:25.823Z,0.10
2024-01-12T01:21:54.396Z,0.10
2024-01-12T01:24:22.634Z,0.00
2024-01-12T01:26:50.844Z,0.10
2024-01-12T01:29:19.127Z,0.10
2024-01-12T01:31:48.701Z,0.10
2024-01-12T01:34:17.344Z,0.00
2024-01-12T01:36:45.996Z,0.10
2024-01-12T01:39:15.485Z,0.10
2024-01-12T01:41:43.765Z,0.10
2024-01-12T01:44:12.258Z,0.00
2024-01-12T01:46:40.902Z,0.10
2024-01-12T01:49:11.030Z,0.10
2024-01-12T01:51:40.368Z,0.10
2024-01-12T01:54:08.874Z,0.00
2024-01-12T01:56:42.178Z,0.00
2024-01-12T01:59:10.608Z,0.00
2024-01-12T02:01:39.823Z,0.00
2024-01-12T02:04:12.656Z,0.00
2024-01-12T02:06:41.600Z,0.10
2024-01-12T02:09:10.467Z,0.00
2024-01-12T02:11:38.944Z,0.00
2024-01-12T02:14:09.278Z,0.00
2024-01-12T02:16:37.999Z,0.00
2024-01-12T02:19:06.854Z,0.10
2024-01-12T02:21:37.020Z,0.00
2024-01-12T02:24:06.002Z,0.00
2024-01-12T02:26:34.396Z,0.00
2024-01-12T02:29:04.629Z,0.00
2024-01-12T02:31:33.175Z,0.00
2024-01-12T02:34:01.623Z,-0.10
2024-01-12T02:36:31.039Z,0.00
2024-01-12T02:39:00.649Z,-0.20
2024-01-12T02:41:29.052Z,-0.30
2024-01-12T02:43:57.325Z,-0.40
2024-01-12T02:46:25.751Z,-0.40
2024-01-12T02:48:54.062Z,-0.30
2024-01-12T02:51:22.334Z,-0.40
2024-01-12T02:53:50.731Z,-0.40
2024-01-12T02:56:20.641Z,-0.40
2024-01-12T02:58:49.158Z,-0.30
2024-01-12T03:01:21.286Z,-0.30
2024-01-12T03:03:49.579Z,-0.20
2024-01-12T03:06:17.980Z,-0.20
2024-01-12T03:08:46.453Z,-0.20
2024-01-12T03:11:14.832Z,-0.20
2024-01-12T03:13:44.574Z,-0.10
2024-01-12T03:16:21.453Z,-0.10
2024-01-12T03:18:51.154Z,-0.10
2024-01-12T03:21:20.020Z,0.00
2024-01-12T03:23:49.234Z,0.10
2024-01-12T03:26:18.005Z,0.00
2024-01-12T03:28:47.732Z,0.00
2024-01-12T03:31:19.431Z,-0.10
2024-01-12T03:33:48.126Z,0.00
2024-01-12T03:36:18.789Z,0.00
2024-01-12T03:38:47.492Z,-0.10
2024-01-12T03:41:15.957Z,0.10
2024-01-12T03:43:44.556Z,0.10
2024-01-12T03:46:14.557Z,0.00
2024-01-12T03:48:44.625Z,0.00
2024-01-12T03:51:12.971Z,-0.10
2024-01-12T03:53:41.294Z,0.10
2024-01-12T03:56:09.600Z,0.00
2024-01-12T03:58:39.821Z,0.00
2024-01-12T04:01:08.914Z,0.00
2024-01-12T04:03:38.704Z,0.00
2024-01-12T04:06:10.574Z,0.00
2024-01-12T04:08:39.254Z,0.00
2024-01-12T04:11:08.019Z,0.00
2024-01-12T04:13:36.324Z,-0.10
2024-01-12T04:16:04.964Z,0.00
2024-01-12T04:18:35.333Z,0.00
2024-01-12T04:21:05.979Z,0.00
2024-01-12T04:23:34.275Z,0.00
2024-01-12T04:26:02.586Z,0.00
2024-01-12T04:28:30.764Z,0.00
2024-01-12T04:30:59.201Z,0.00
2024-01-12T04:33:28.052Z,0.00
2024-01-12T04:35:56.534Z,0.00
2024-01-12T04:38:27.502Z,-0.10
2024-01-12T04:40:56.438Z,0.00
2024-01-12T04:43:24.734Z,0.00
2024-01-12T04:45:53.102Z,0.00
2024-01-12T04:48:21.379Z,0.00
2024-01-12T04:50:49.772Z,0.00
2024-01-12T04:53:18.065Z,0.10
2024-01-12T04:55:47.633Z,0.00
2024-01-12T04:58:16.075Z,0.10
2024-01-12T05:00:44.869Z,0.00
2024-01-12T05:03:14.692Z,-0.10
2024-01-12T05:05:44.245Z,-0.10
2024-01-12T05:08:12.527Z,-0.10
2024-01-12T05:10:40.721Z,0.00
2024-01-12T05:13:10.346Z,0.00
2024-01-12T05:15:38.561Z,0.00
2024-01-12T05:18:09.793Z,-0.10
2024-01-12T05:20:38.433Z,0.00
2024-01-12T05:23:08.186Z,0.00
2024-01-12T05:25:36.600Z,0.00
2024-01-12T05:28:05.462Z,-0.10
2024-01-12T05:30:35.331Z,-0.10
2024-01-12T05:33:03.728Z,-0.10
2024-01-12T05:35:32.740Z,0.00
2024-01-12T05:38:01.013Z,-0.10
2024-01-12T05:40:29.332Z,0.00
2024-01-12T05:42:57.558Z,-0.10
2024-01-12T05:45:25.828Z,-0.10
2024-01-12T05:47:55.638Z,-0.10
2024-01-12T05:50:23.827Z,0.00
2024-01-12T05:52:51.965Z,0.00
2024-01-12T05:55:20.289Z,-0.10
2024-01-12T05:57:48.406Z,0.00
2024-01-12T06:00:17.452Z,-0.10
2024-01-12T06:02:45.794Z,-0.10
2024-01-12T06:05:15.530Z,0.00
2024-01-12T06:07:43.764Z,-0.10
2024-01-12T06:10:13.723Z,0.00
2024-01-12T06:12:42.052Z,-0.10
2024-01-12T06:15:10.701Z,0.00
2024-01-12T06:17:39.049Z,0.00
2024-01-12T06:20:09.369Z,0.00
2024-01-12T06:22:39.367Z,0.10
2024-01-12T06:25:08.949Z,0.10
2024-01-12T06:27:37.181Z,0.00
2024-01-12T06:30:06.984Z,0.00
2024-01-12T06:32:35.537Z,0.00
2024-01-12T06:35:04.438Z,0.00
2024-01-12T06:37:32.827Z,0.00
2024-01-12T06:40:02.770Z,0.00
2024-01-12T06:42:31.072Z,0.00
2024-01-12T06:45:01.086Z,0.00
2024-01-12T06:47:30.282Z,0.00
2024-01-12T06:49:58.582Z,0.10
2024-01-12T06:52:26.944Z,0.10
2024-01-12T06:54:55.224Z,0.00
2024-01-12T06:57:24.910Z,0.00
2024-01-12T06:59:53.314Z,0.00
2024-01-12T07:02:21.975Z,0.00
2024-01-12T07:04:50.291Z,0.00
2024-01-12T07:07:18.823Z,0.10
2024-01-12T07:09:47.146Z,0.40
2024-01-12T07:12:15.422Z,0.10
2024-01-12T07:14:45.129Z,0.00
2024-01-12T07:17:13.543Z,0.00
2024-01-12T07:19:45.777Z,0.10
2024-01-12T07:22:14.218Z,0.10
2024-01-12T07:24:42.439Z,0.10
2024-01-12T07:27:10.713Z,0.10
2024-01-12T07:29:39.093Z,0.10
2024-01-12T07:32:08.951Z,0.10
2024-01-12T07:34:37.319Z,0.00
2024-01-12T07:37:06.023Z,0.10
2024-01-12T07:39:34.545Z,0.10
2024-01-12T07:42:03.605Z,0.10
2024-01-12T07:44:31.929Z,0.10
2024-01-12T07:47:00.391Z,0.10
2024-01-12T07:49:30.092Z,0.00
2024-01-12T07:51:58.251Z,0.10
2024-01-12T07:54:26.572Z,0.10
2024-01-12T07:56:55.362Z,0.10
2024-01-12T07:59:23.681Z,0.10
2024-01-12T08:01:54.448Z,0.00
2024-01-12T08:04:23.957Z,0.00
2024-01-12T08:06:53.786Z,0.10
2024-01-12T08:09:22.190Z,0.00
2024-01-12T08:11:50.493Z,0.00
2024-01-12T08:14:18.658Z,0.10
2024-01-12T08:16:46.890Z,-0.10
2024-01-12T08:19:15.172Z,-0.10
2024-01-12T08:21:49.249Z,0.00
2024-01-12T08:24:24.876Z,0.00
2024-01-12T08:26:53.300Z,0.40
2024-01-12T08:29:21.617Z,0.10
2024-01-12T08:31:52.219Z,0.10
2024-01-12T08:34:20.995Z,0.20
2024-01-12T08:36:49.327Z,0.10
2024-01-12T08:39:17.666Z,0.10
2024-01-12T08:41:47.264Z,0.20
2024-01-12T08:44:15.561Z,0.20
2024-01-12T08:46:43.901Z,0.20
2024-01-12T08:49:12.338Z,0.30
2024-01-12T08:51:40.628Z,0.30
2024-01-12T08:54:09.030Z,0.30
2024-01-12T08:56:37.293Z,0.30
2024-01-12T08:59:06.899Z,0.40
2024-01-12T09:01:35.144Z,0.30
2024-01-12T09:04:03.570Z,0.30
2024-01-12T09:06:32.063Z,0.30
2024-01-12T09:09:00.541Z,0.30
2024-01-12T09:11:28.883Z,0.20
2024-01-12T09:13:57.083Z,0.20
2024-01-12T09:16:26.729Z,0.20
2024-01-12T09:18:55.225Z,0.30
2024-01-12T09:21:25.285Z,0.30
2024-01-12T09:23:53.646Z,0.20
2024-01-12T09:26:22.064Z,0.30
2024-01-12T09:28:50.529Z,0.20
2024-01-12T09:31:19.426Z,0.20
2024-01-12T09:33:49.245Z,0.10
2024-01-12T09:36:17.688Z,0.10
2024-01-12T09:38:45.973Z,0.10
2024-01-12T09:41:14.227Z,0.20
2024-01-12T09:43:44.433Z,0.10
2024-01-12T09:46:15.676Z,0.20
2024-01-12T09:48:44.758Z,0.20
2024-01-12T09:51:17.238Z,0.20
2024-01-12T09:53:45.664Z,0.10
2024-01-12T09:56:14.002Z,0.20
2024-01-12T09:58:44.612Z,0.00
2024-01-12T10:01:14.309Z,0.00
2024-01-12T10:03:45.369Z,0.00
2024-01-12T10:06:15.905Z,0.10
2024-01-12T10:08:44.532Z,0.10
2024-01-12T10:11:12.708Z,0.10
2024-01-12T10:13:40.930Z,-0.10
2024-01-12T10:16:09.318Z,-0.10
2024-01-12T10:18:38.362Z,-0.10
2024-01-12T10:21:07.036Z,-0.10
2024-01-12T10:23:37.204Z,-0.10
2024-01-12T10:26:10.360Z,-0.10
2024-01-12T10:28:38.582Z,-0.20
2024-01-12T10:31:08.477Z,-0.20
2024-01-12T10:33:37.833Z,-0.30
2024-01-12T10:36:14.161Z,-0.20
2024-01-12T10:38:48.700Z,-0.20
2024-01-12T10:41:23.401Z,0.30
2024-01-12T10:43:55.948Z,-0.30
2024-01-12T10:46:36.049Z,-0.20
2024-01-12T10:49:19.375Z,-0.20
2024-01-12T10:52:03.089Z,0.20
2024-01-12T10:54:46.852Z,-0.20
2024-01-12T10:57:16.597Z,-0.30
2024-01-12T10:59:46.958Z,-0.30
2024-01-12T11:02:16.366Z,-0.20
2024-01-12T11:04:47.212Z,-0.10
2024-01-12T11:07:17.470Z,-0.10
2024-01-12T11:09:47.490Z,-0.20
2024-01-12T11:12:31.903Z,-0.20
2024-01-12T11:15:01.294Z,-0.30
2024-01-12T11:17:31.404Z,-0.30
2024-01-12T11:20:12.586Z,-0.30
2024-01-12T11:22:43.843Z,-0.30
2024-01-12T11:25:15.940Z,-0.40
2024-01-12T11:27:50.088Z,-0.50
2024-01-12T11:30:20.564Z,-0.50
2024-01-12T11:32:50.547Z,-0.50
2024-01-12T11:35:21.486Z,-0.40
2024-01-12T11:38:02.858Z,-0.50
2024-01-12T11:40:34.547Z,-0.50
2024-01-12T11:43:03.887Z,-0.30
2024-01-12T11:45:34.634Z,-0.30
2024-01-12T11:48:05.478Z,-0.30
2024-01-12T11:50:34.108Z,-0.30
2024-01-12T11:53:03.808Z,-0.40
2024-01-12T11:55:33.917Z,-0.50
2024-01-12T11:58:02.236Z,-0.50
2024-01-12T12:00:30.615Z,-0.40
2024-01-12T12:02:59.089Z,-0.40
2024-01-12T12:05:30.929Z,-0.40
2024-01-12T12:07:59.287Z,-0.50
2024-01-12T12:10:33.649Z,-0.40
2024-01-12T12:13:12.859Z,-0.40
2024-01-12T12:15:41.126Z,-0.40
2024-01-12T12:18:09.920Z,-0.40
2024-01-12T12:20:38.449Z,-0.30
2024-01-12T12:23:08.427Z,-0.10
2024-01-12T12:25:36.934Z,-0.20
2024-01-12T12:28:07.017Z,-0.10
2024-01-12T12:30:36.911Z,-0.40
2024-01-12T12:33:05.971Z,-0.40
2024-01-12T12:35:35.208Z,-0.50
2024-01-12T12:38:04.924Z,-0.60
2024-01-12T12:40:35.420Z,-0.60
2024-01-12T12:43:05.079Z,-0.60
2024-01-12T12:45:35.972Z,-0.50
2024-01-12T12:48:06.168Z,-0.40
2024-01-12T12:50:34.671Z,-0.40
2024-01-12T12:53:03.606Z,-0.40
2024-01-12T12:55:31.874Z,-0.30
2024-01-12T12:58:00.138Z,-0.20
2024-01-12T13:00:28.698Z,-0.20
2024-01-12T13:02:58.416Z,-0.10
2024-01-12T13:05:26.828Z,-0.10
2024-01-12T13:07:56.959Z,-0.20
2024-01-12T13:10:25.688Z,-0.30
2024-01-12T13:12:53.938Z,-0.20
2024-01-12T13:15:22.234Z,-0.30
2024-01-12T13:17:50.572Z,-0.10
2024-01-12T13:20:22.758Z,-0.70
2024-01-12T13:22:51.200Z,-0.60
2024-01-12T13:25:19.510Z,-0.60
2024-01-12T13:27:48.971Z,-0.80
2024-01-12T13:30:17.876Z,-0.60
2024-01-12T13:32:48.090Z,-0.70
2024-01-12T13:35:16.824Z,-0.70
2024-01-12T13:37:46.604Z,-0.70
2024-01-12T13:40:15.659Z,-0.60
2024-01-12T13:42:43.880Z,-0.70
2024-01-12T13:45:14.809Z,-0.70
2024-01-12T13:47:43.197Z,-0.70
2024-01-12T13:50:12.301Z,-0.80
2024-01-12T13:52:40.612Z,-0.80
2024-01-12T13:55:10.796Z,-0.70
2024-01-12T13:57:39.165Z,-0.60
2024-01-12T14:00:10.744Z,-0.50
2024-01-12T14:02:41.668Z,-0.50
2024-01-12T14:05:17.361Z,-0.50
2024-01-12T14:07:47.589Z,-0.50
2024-01-12T14:10:17.356Z,-0.50
2024-01-12T14:12:45.792Z,-0.80
2024-01-12T14:15:14.279Z,-0.80
2024-01-12T14:17:42.753Z,-0.70
2024-01-12T14:20:14.192Z,-0.60
2024-01-12T14:22:42.876Z,-0.50
2024-01-12T14:25:11.736Z,-0.60
2024-01-12T14:27:42.843Z,-0.60
2024-01-12T14:30:13.409Z,-0.70
2024-01-12T14:32:42.621Z,-0.70
2024-01-12T14:35:11.245Z,-0.70
2024-01-12T14:37:39.611Z,-0.70
2024-01-12T14:40:09.602Z,-0.70
2024-01-12T14:42:38.060Z,-0.70
2024-01-12T14:45:10.095Z,-0.70
2024-01-12T14:47:40.798Z,-0.60
2024-01-12T14:50:11.669Z,-0.70
2024-01-12T14:52:41.085Z,-0.60
2024-01-12T14:55:10.551Z,-0.60
2024-01-12T14:57:40.715Z,-0.50
2024-01-12T15:00:12.816Z,-0.50
2024-01-12T15:02:41.669Z,-0.60
2024-01-12T15:05:12.586Z,-0.60
2024-01-12T15:07:42.251Z,-0.70
2024-01-12T15:10:12.419Z,-0.70
2024-01-12T15:12:41.584Z,-0.70
2024-01-12T15:15:11.923Z,-0.70
2024-01-12T15:17:40.792Z,-0.60
2024-01-12T15:20:11.281Z,-0.70
2024-01-12T15:22:39.712Z,-0.60
2024-01-12T15:25:09.038Z,-0.70
2024-01-12T15:27:37.750Z,-0.70
2024-01-12T15:30:08.381Z,-0.60
2024-01-12T15:32:38.543Z,-0.50
2024-01-12T15:35:07.985Z,-0.50
2024-01-12T15:37:36.295Z,-0.50
2024-01-12T15:40:05.727Z,-0.40
2024-01-12T15:42:39.202Z,-0.40
2024-01-12T15:45:13.570Z,-0.40
2024-01-12T15:47:43.282Z,-0.40
2024-01-12T15:50:12.194Z,-0.40
2024-01-12T15:52:40.723Z,-0.40
2024-01-12T15:55:10.416Z,-0.50
2024-01-12T15:57:38.808Z,-0.50
2024-01-12T16:00:11.049Z,-0.50
2024-01-12T16:02:39.516Z,-0.60
2024-01-12T16:05:10.296Z,-0.50
2024-01-12T16:07:38.617Z,-0.40
2024-01-12T16:10:07.966Z,-0.40
2024-01-12T16:12:36.371Z,-0.30
2024-01-12T16:15:07.563Z,-0.40
2024-01-12T16:17:38.207Z,-0.30
2024-01-12T16:20:10.314Z,-0.40
2024-01-12T16:22:38.739Z,-0.40
2024-01-12T16:25:08.297Z,-0.40
2024-01-12T16:27:36.759Z,-0.50
2024-01-12T16:30:06.027Z,-0.50
2024-01-12T16:32:35.417Z,-0.60
2024-01-12T16:35:03.974Z,-0.60
2024-01-12T16:37:34.123Z,-0.60
2024-01-12T16:40:02.416Z,-0.70
2024-01-12T16:42:30.621Z,-0.80
2024-01-12T16:45:00.788Z,-0.90
2024-01-12T16:47:29.483Z,-0.90
2024-01-12T16:49:57.898Z,-1.00
2024-01-12T16:52:26.169Z,-0.90
2024-01-12T16:54:56.067Z,-1.00
2024-01-12T16:57:24.687Z,-0.90
2024-01-12T16:59:52.956Z,-0.90
2024-01-12T17:02:21.190Z,-0.90
2024-01-12T17:04:51.798Z,-0.90
2024-01-12T17:07:22.392Z,-0.80
2024-01-12T17:09:50.791Z,-0.80
2024-01-12T17:12:22.491Z,-0.90
2024-01-12T17:14:50.793Z,-0.90
2024-01-12T17:17:25.964Z,-0.90
2024-01-12T17:19:59.112Z,-0.90
2024-01-12T17:22:28.005Z,-0.90
2024-01-12T17:24:56.150Z,-0.90
2024-01-12T17:27:28.299Z,-0.90
2024-01-12T17:29:57.462Z,-0.90
2024-01-12T17:32:27.499Z,-0.80
2024-01-12T17:34:56.429Z,-0.80
2024-01-12T17:37:24.687Z,-0.80
2024-01-12T17:39:55.457Z,-0.80
2024-01-12T17:42:26.141Z,-0.70
2024-01-12T17:44:54.439Z,-0.70
2024-01-12T17:47:22.708Z,-0.80
2024-01-12T17:49:52.083Z,-0.70
2024-01-12T17:52:21.782Z,-0.80
2024-01-12T17:54:50.327Z,-0.70
2024-01-12T17:57:20.221Z,-0.70
2024-01-12T17:59:50.098Z,-0.70
2024-01-12T18:02:19.763Z,-0.70
2024-01-12T18:04:49.117Z,-0.80
2024-01-12T18:07:17.387Z,-0.70
2024-01-12T18:09:45.929Z,-0.70
2024-01-12T18:12:15.035Z,-0.60
2024-01-12T18:14:43.393Z,-0.70
2024-01-12T18:17:13.050Z,-0.70
2024-01-12T18:19:42.150Z,-0.70
2024-01-12T18:22:10.700Z,-0.80
2024-01-12T18:24:38.954Z,-0.80
2024-01-12T18:27:07.592Z,-0.80
2024-01-12T18:29:36.717Z,-0.80
2024-01-12T18:32:05.374Z,-0.70
2024-01-12T18:34:35.528Z,-0.60
2024-01-12T18:37:04.059Z,-0.50
2024-01-12T18:39:32.385Z,-0.60
2024-01-12T18:42:00.785Z,-0.60
2024-01-12T18:44:28.996Z,-0.70
2024-01-12T18:46:57.224Z,-0.60
2024-01-12T18:49:25.585Z,-0.60
2024-01-12T18:51:55.190Z,-0.60
2024-01-12T18:54:23.519Z,-0.70
2024-01-12T18:56:51.829Z,-0.60
2024-01-12T18:59:20.039Z,-0.60
2024-01-12T19:01:48.737Z,-0.60
2024-01-12T19:04:18.131Z,-0.50
2024-01-12T19:06:46.648Z,-0.30
2024-01-12T19:09:18.028Z,-0.40
2024-01-12T19:11:46.617Z,-0.40
2024-01-12T19:14:15.561Z,-0.50
2024-01-12T19:16:45.544Z,-0.40
2024-01-12T19:19:14.611Z,-0.40
2024-01-12T19:21:44.292Z,-0.40
2024-01-12T19:24:12.894Z,-0.40
2024-01-12T19:26:42.657Z,-0.30
2024-01-12T19:29:10.981Z,-0.30
2024-01-12T19:31:41.422Z,-0.50
2024-01-12T19:34:10.702Z,-0.50
2024-01-12T19:36:42.924Z,-0.40
2024-01-12T19:39:12.056Z,-0.40
2024-01-12T19:41:40.406Z,-0.30
2024-01-12T19:44:10.005Z,-0.30
2024-01-12T19:46:38.219Z,-0.30
2024-01-12T19:49:06.512Z,-0.30
2024-01-12T19:51:34.887Z,-0.30
2024-01-12T19:54:03.166Z,-0.30
2024-01-12T19:56:31.932Z,-0.30
2024-01-12T19:59:04.602Z,-0.30
2024-01-12T20:01:34.581Z,-0.40
2024-01-12T20:04:03.865Z,-0.30
2024-01-12T20:06:32.347Z,-0.20
2024-01-12T20:09:00.912Z,-0.20
2024-01-12T20:11:29.293Z,-0.10
2024-01-12T20:13:57.573Z,-0.20
2024-01-12T20:16:27.570Z,-0.20
2024-01-12T20:18:58.654Z,-0.20
2024-01-12T20:21:29.454Z,-0.20
2024-01-12T20:23:57.677Z,-0.20
2024-01-12T20:26:25.958Z,-0.20
2024-01-12T20:28:54.677Z,-0.20
2024-01-12T20:31:23.092Z,-0.20
2024-01-12T20:33:51.587Z,-0.10
2024-01-12T20:36:21.483Z,-0.10
2024-01-12T20:38:50.783Z,0.10
2024-01-12T20:41:19.635Z,-0.10
2024-01-12T20:43:47.893Z,-0.10
2024-01-12T20:46:16.251Z,-0.10
2024-01-12T20:48:44.851Z,0.00
2024-01-12T20:51:13.124Z,-0.10
2024-01-12T20:53:42.785Z,0.00
2024-01-12T20:56:11.166Z,0.00
2024-01-12T20:58:39.364Z,0.00
2024-01-12T21:01:07.724Z,0.10
2024-01-12T21:03:36.202Z,0.10
2024-01-12T21:06:05.121Z,0.00
2024-01-12T21:08:33.490Z,0.00
2024-01-12T21:11:03.189Z,0.10
2024-01-12T21:13:31.378Z,0.10
2024-01-12T21:15:59.872Z,0.10
2024-01-12T21:18:28.405Z,0.20
2024-01-12T21:20:56.767Z,0.20
2024-01-12T21:23:24.916Z,0.20
2024-01-12T21:25:53.072Z,0.10
2024-01-12T21:28:22.608Z,0.20
2024-01-12T21:30:51.382Z,0.20
2024-01-12T21:33:20.173Z,0.20
2024-01-12T21:35:48.950Z,0.30
2024-01-12T21:38:17.529Z,0.30
2024-01-12T21:40:45.772Z,0.30
2024-01-12T21:43:14.183Z,0.30
2024-01-12T21:45:45.084Z,0.40
2024-01-12T21:48:13.403Z,0.40
2024-01-12T21:50:42.136Z,0.40
2024-01-12T21:53:10.381Z,0.40
2024-01-12T21:55:38.658Z,0.40
2024-01-12T21:58:06.951Z,0.50
2024-01-12T22:00:35.664Z,0.40
2024-01-12T22:03:05.599Z,0.40
2024-01-12T22:05:33.845Z,0.40
2024-01-12T22:08:02.126Z,0.40
2024-01-12T22:10:30.360Z,0.30
2024-01-12T22:12:58.706Z,0.40
2024-01-12T22:15:26.927Z,0.40
2024-01-12T22:17:55.303Z,0.40
2024-01-12T22:20:25.008Z,0.40
2024-01-12T22:22:53.407Z,0.50
2024-01-12T22:25:21.630Z,0.40
2024-01-12T22:27:49.838Z,0.40
2024-01-12T22:30:18.582Z,0.40
2024-01-12T22:32:46.932Z,0.50
2024-01-12T22:35:15.152Z,0.50
2024-01-12T22:37:45.025Z,0.60
2024-01-12T22:40:13.499Z,0.50
2024-01-12T22:42:41.798Z,0.60
2024-01-12T22:45:11.292Z,0.50
2024-01-12T22:47:41.532Z,0.50
2024-01-12T22:50:10.792Z,1.10
2024-01-12T22:52:39.220Z,0.50
2024-01-12T22:55:10.609Z,0.50
2024-01-12T22:57:38.880Z,0.50
2024-01-12T23:00:25.897Z,0.60
2024-01-12T23:02:55.106Z,0.50
2024-01-12T23:05:23.506Z,0.60
2024-01-12T23:07:52.163Z,0.60
2024-01-12T23:10:22.226Z,0.70
2024-01-12T23:12:50.562Z,0.60
2024-01-12T23:15:19.901Z,0.70
2024-01-12T23:17:48.275Z,0.60
2024-01-12T23:20:19.282Z,0.60
2024-01-12T23:22:48.798Z,0.60
2024-01-12T23:25:17.147Z,0.70
2024-01-12T23:27:46.724Z,0.60
2024-01-12T23:30:15.200Z,0.70
2024-01-12T23:32:43.729Z,0.70
2024-01-12T23:35:12.401Z,0.70
2024-01-12T23:37:40.760Z,0.70
2024-01-12T23:40:11.190Z,0.70
2024-01-12T23:42:39.624Z,0.70
2024-01-12T23:45:13.932Z,0.70
2024-01-12T23:47:43.747Z,0.70
2024-01-12T23:50:12.986Z,0.80
2024-01-12T23:52:41.380Z,0.70
2024-01-12T23:55:10.999Z,0.70
2024-01-12T23:57:39.967Z,0.70
